Time;durP1;ratioP1;P1;durP2;ratioP2;P2;SDS_P1;SDS_P2;PMS_P1;PMS_P2;Temp;Humidity;BMP_temperature;BMP_pressure;BME280_temperature;BME280_humidity;BME280_pressure;Samples;Min_cycle;Max_cycle;Signal;HPM_P1;HPM_P2
2024/03/11 08:04:57;;;;;;;69.83;48.50;;;8.40;99.90;;;;;;6276955;22;20024;-82
2024/03/11 08:07:51;;;;;;;72.93;47.93;;;8.40;99.90;;;;;;6284924;22;38415;-81
2024/03/11 08:54:50;;;;;;;65.57;48.07;;;8.70;99.90;;;;;;6268685;22;20022;-80
2024/03/11 08:57:17;;;;;;;67.53;48.60;;;8.60;99.90;;;;;;6298497;22;38770;-80
2024/03/11 09:00:27;;;;;;;67.40;48.67;;;8.60;99.90;;;;;;6296572;22;37718;-81
2024/03/11 09:03:05;;;;;;;75.50;50.30;;;8.60;99.90;;;;;;6266204;22;50223;-82
2024/03/11 09:05:55;;;;;;;68.30;47.60;;;8.70;99.90;;;;;;6250954;22;49525;-80
2024/03/11 09:09:04;;;;;;;64.23;46.43;;;8.70;99.90;;;;;;6284574;22;41721;-83
2024/03/11 09:11:38;;;;;;;68.30;48.93;;;8.70;99.90;;;;;;6217101;22;49362;-81
2024/03/11 09:14:19;;;;;;;74.43;50.23;;;8.80;99.90;;;;;;6296880;22;38890;-81
2024/03/11 09:17:11;;;;;;;68.27;47.13;;;8.80;99.90;;;;;;6311117;22;39768;-80
2024/03/11 09:19:44;;;;;;;76.20;51.70;;;8.80;99.90;;;;;;6289967;22;39659;-81
2024/03/11 09:22:23;;;;;;;66.25;46.05;;;8.90;99.90;;;;;;6302488;22;38504;-81
2024/03/11 09:24:52;;;;;;;68.47;48.73;;;8.90;99.90;;;;;;6263703;22;39604;-81
2024/03/11 09:27:21;;;;;;;67.33;48.67;;;9.00;99.90;;;;;;6290285;22;39995;-81
2024/03/11 09:29:48;;;;;;;63.63;46.07;;;9.10;99.90;;;;;;6315038;22;37561;-81
2024/03/11 09:32:22;;;;;;;63.77;45.23;;;8.90;99.90;;;;;;6294596;22;37224;-81
2024/03/11 09:34:53;;;;;;;70.33;49.60;;;9.00;99.90;;;;;;6303325;22;38255;-80
2024/03/11 09:37:24;;;;;;;65.13;46.27;;;9.00;99.90;;;;;;6271138;22;40845;-80
2024/03/11 09:39:51;;;;;;;65.50;46.97;;;9.10;99.90;;;;;;6267581;22;38413;-80
2024/03/11 09:42:23;;;;;;;65.37;46.33;;;9.10;99.90;;;;;;6262515;22;37391;-80
2024/03/11 09:44:53;;;;;;;66.53;47.13;;;9.10;99.90;;;;;;6261239;22;38679;-80
2024/03/11 09:47:21;;;;;;;62.20;45.70;;;9.20;99.90;;;;;;6257204;22;38320;-79
2024/03/11 09:49:48;;;;;;;68.33;48.20;;;9.20;99.90;;;;;;6288452;22;39451;-79
2024/03/11 09:52:15;;;;;;;66.00;49.40;;;9.10;99.90;;;;;;6284437;22;38541;-79
2024/03/11 09:54:41;;;;;;;67.60;49.50;;;9.10;99.90;;;;;;6254753;22;37974;-78
2024/03/11 09:57:13;;;;;;;64.18;47.50;;;9.10;99.90;;;;;;6251558;22;38043;-78
2024/03/11 09:59:44;;;;;;;65.97;48.27;;;9.00;99.90;;;;;;6251746;22;38208;-78
2024/03/11 10:02:15;;;;;;;62.90;46.50;;;9.00;99.90;;;;;;6250340;22;38503;-77
2024/03/11 10:04:41;;;;;;;67.27;48.17;;;9.00;99.90;;;;;;6250506;22;37722;-77
2024/03/11 10:07:09;;;;;;;73.83;50.27;;;9.00;99.90;;;;;;6247901;22;37797;-77
2024/03/11 10:09:44;;;;;;;65.30;49.17;;;8.90;99.90;;;;;;6235678;22;37519;-76
2024/03/11 10:12:12;;;;;;;64.97;49.50;;;8.90;99.90;;;;;;6235693;22;40474;-76
2024/03/11 10:14:39;;;;;;;67.87;49.30;;;8.90;99.90;;;;;;6237208;22;37375;-77
2024/03/11 10:17:28;;;;;;;72.00;51.30;;;8.90;99.90;;;;;;6237816;22;38954;-75
2024/03/11 10:20:00;;;;;;;68.17;48.37;;;8.90;99.90;;;;;;6238666;22;40331;-75
2024/03/11 10:22:28;;;;;;;74.50;51.92;;;8.90;99.90;;;;;;6263942;22;38959;-75
2024/03/11 10:24:56;;;;;;;69.07;50.33;;;8.80;99.90;;;;;;6238097;22;38278;-76
2024/03/11 10:27:31;;;;;;;69.83;49.20;;;8.90;99.90;;;;;;6235270;22;40419;-76
2024/03/11 10:29:57;;;;;;;68.22;49.45;;;8.90;99.90;;;;;;6264892;22;38274;-76
2024/03/11 10:32:42;;;;;;;70.43;50.53;;;9.00;99.90;;;;;;6234934;22;38476;-77
2024/03/11 10:35:11;;;;;;;69.43;49.67;;;9.00;99.90;;;;;;6265181;22;38013;-77
2024/03/11 10:37:39;;;;;;;66.60;49.70;;;9.00;99.90;;;;;;6239189;22;39503;-76
2024/03/11 10:40:10;;;;;;;67.57;48.43;;;9.20;99.90;;;;;;6265066;22;38769;-77
2024/03/11 10:42:37;;;;;;;83.37;57.33;;;9.20;99.90;;;;;;6238654;22;39726;-76
2024/03/11 10:45:07;;;;;;;74.83;52.27;;;9.30;99.90;;;;;;6266265;22;38175;-76
2024/03/11 10:47:33;;;;;;;76.57;52.97;;;9.30;99.90;;;;;;6236371;22;46993;-76
2024/03/11 10:50:01;;;;;;;65.57;49.27;;;9.30;99.90;;;;;;6264638;22;39163;-77
2024/03/11 10:52:33;;;;;;;71.10;52.27;;;9.30;99.90;;;;;;6262254;22;38242;-76
2024/03/11 10:55:00;;;;;;;83.07;54.97;;;9.30;99.90;;;;;;6264743;22;37341;-75
2024/03/11 10:57:39;;;;;;;75.20;54.73;;;9.40;99.90;;;;;;6265019;22;40045;-76
2024/03/11 11:02:44;;;;;;;72.47;51.85;;;9.20;99.90;;;;;;6264255;22;38766;-75
2024/03/11 11:05:13;;;;;;;80.18;53.72;;;9.20;99.90;;;;;;6262354;22;37291;-76
2024/03/11 11:07:42;;;;;;;80.07;53.53;;;9.30;99.90;;;;;;6235526;22;37831;-76
2024/03/11 11:10:11;;;;;;;73.40;51.23;;;9.40;99.90;;;;;;6262995;22;38197;-76
2024/03/11 11:12:38;;;;;;;66.20;48.33;;;9.40;99.90;;;;;;6264960;22;38643;-76
2024/03/11 11:15:08;;;;;;;72.23;50.93;;;9.40;99.90;;;;;;6274524;22;38415;-75
2024/03/11 11:17:38;;;;;;;65.20;47.20;;;9.50;99.90;;;;;;6272572;22;39010;-76
2024/03/11 11:22:51;;;;;;;67.83;48.97;;;9.30;99.90;;;;;;6263970;22;39345;-76
2024/03/11 11:25:40;;;;;;;81.30;55.13;;;9.30;99.90;;;;;;6232496;22;38264;-76
2024/03/11 11:28:13;;;;;;;74.07;53.00;;;9.20;99.90;;;;;;6262039;22;38673;-76
2024/03/11 11:30:42;;;;;;;74.97;51.97;;;9.10;99.90;;;;;;6236956;22;39627;-76
2024/03/11 11:33:31;;;;;;;75.40;53.40;;;9.10;99.90;;;;;;6273181;22;39006;-76
2024/03/11 11:35:57;;;;;;;78.57;52.33;;;9.10;99.90;;;;;;6275147;22;38231;-76
2024/03/11 11:38:23;;;;;;;76.33;53.10;;;9.10;99.90;;;;;;6252594;22;38191;-76
2024/03/11 11:40:50;;;;;;;70.57;50.17;;;9.10;99.90;;;;;;6276016;22;37320;-75
2024/03/11 11:43:24;;;;;;;69.10;49.30;;;9.10;99.90;;;;;;6250173;22;37042;-75
2024/03/11 11:45:54;;;;;;;64.20;47.67;;;9.20;99.90;;;;;;6277830;22;37717;-76
2024/03/11 11:48:26;;;;;;;63.13;46.67;;;9.30;99.90;;;;;;6276007;22;39149;-77
2024/03/11 11:50:58;;;;;;;66.93;48.07;;;9.30;99.90;;;;;;6248653;22;38179;-76
2024/03/11 11:53:32;;;;;;;63.70;45.85;;;9.40;99.90;;;;;;6273001;22;38469;-76
2024/03/11 11:56:00;;;;;;;67.32;46.35;;;9.40;99.90;;;;;;6245658;22;37595;-76
2024/03/11 11:58:27;;;;;;;60.67;44.30;;;9.40;99.90;;;;;;6270230;22;39332;-76
2024/03/11 12:00:58;;;;;;;61.90;44.07;;;9.40;99.90;;;;;;6264253;22;38320;-76
2024/03/11 12:03:35;;;;;;;61.13;44.40;;;9.40;99.90;;;;;;6235514;22;40608;-75
2024/03/11 12:06:17;;;;;;;64.17;45.33;;;9.40;99.90;;;;;;6261140;22;38211;-76
2024/03/11 12:08:50;;;;;;;62.83;47.47;;;9.30;99.90;;;;;;6263327;22;39730;-76
2024/03/11 12:11:19;;;;;;;;;;;9.40;99.90;;;;;;6263924;22;39420;-75
2024/03/11 12:13:47;;;;;;;62.23;43.17;;;9.40;99.90;;;;;;6235821;22;37543;-76
2024/03/11 12:16:23;;;;;;;61.83;44.03;;;9.40;99.90;;;;;;6232697;22;35956;-76
2024/03/11 12:19:07;;;;;;;61.90;44.93;;;9.40;99.90;;;;;;6235605;22;37740;-76
2024/03/11 12:21:34;;;;;;;63.20;45.83;;;9.50;99.90;;;;;;6232023;22;47953;-76
2024/03/11 12:24:01;;;;;;;76.13;53.33;;;9.40;99.90;;;;;;6263826;22;37215;-76
2024/03/11 12:26:31;;;;;;;62.70;46.93;;;9.50;99.90;;;;;;6236198;22;36219;-75
2024/03/11 12:29:06;;;;;;;71.57;49.30;;;9.40;99.90;;;;;;6232617;22;39694;-78
2024/03/11 12:31:34;;;;;;;65.50;48.97;;;9.40;99.90;;;;;;6259474;22;48932;-77
2024/03/11 12:34:13;;;;;;;62.47;45.80;;;9.40;99.90;;;;;;6238026;22;38828;-79
2024/03/11 12:36:46;;;;;;;67.33;46.30;;;9.40;99.90;;;;;;6266667;22;48682;-78
2024/03/11 12:39:26;;;;;;;64.10;45.10;;;9.40;99.90;;;;;;6267336;22;40804;-77
2024/03/11 12:41:59;;;;;;;63.15;46.50;;;9.60;99.90;;;;;;6265637;22;38756;-77
2024/03/11 12:44:26;;;;;;;63.08;47.97;;;9.70;99.90;;;;;;6234915;22;38680;-77
2024/03/11 12:46:53;;;;;;;63.38;46.30;;;9.60;99.90;;;;;;6260951;22;38778;-77
2024/03/11 12:49:22;;;;;;;63.20;47.07;;;9.60;99.90;;;;;;6261617;22;38463;-77
2024/03/11 12:51:51;;;;;;;68.37;48.63;;;9.60;99.90;;;;;;6264268;22;38568;-77
2024/03/11 12:54:19;;;;;;;66.05;46.47;;;9.60;99.90;;;;;;6235057;22;37302;-77
2024/03/11 12:57:11;;;;;;;66.47;47.67;;;9.60;99.90;;;;;;6235405;22;36696;-78
2024/03/11 12:59:40;;;;;;;64.23;47.60;;;9.60;99.90;;;;;;6260354;22;48490;-77
2024/03/11 13:02:17;;;;;;;74.23;50.73;;;9.60;99.90;;;;;;6216747;22;38671;-77
2024/03/11 13:04:46;;;;;;;72.37;51.57;;;9.60;99.90;;;;;;6264226;22;38095;-78
2024/03/11 13:07:12;;;;;;;63.63;46.22;;;9.60;99.90;;;;;;6235109;22;36332;-79
2024/03/11 13:09:40;;;;;;;72.70;52.35;;;9.60;99.90;;;;;;6263234;22;39012;-78
2024/03/11 13:12:17;;;;;;;69.40;48.35;;;9.50;99.90;;;;;;6270816;22;38518;-80
2024/03/11 13:14:45;;;;;;;70.75;49.58;;;9.50;99.90;;;;;;6250379;22;38721;-78
2024/03/11 13:17:18;;;;;;;66.90;50.20;;;9.50;99.90;;;;;;6240046;22;37675;-79
2024/03/11 13:19:46;;;;;;;63.40;46.97;;;9.50;99.90;;;;;;6244544;22;39984;-79
2024/03/11 13:22:22;;;;;;;68.03;47.93;;;9.40;99.90;;;;;;6271041;22;38552;-79
2024/03/11 13:24:53;;;;;;;67.70;48.37;;;9.50;99.90;;;;;;6245414;22;38554;-78
2024/03/11 13:27:24;;;;;;;65.32;47.22;;;9.60;99.90;;;;;;6243294;22;36482;-79
2024/03/11 13:29:53;;;;;;;77.03;52.15;;;9.60;99.90;;;;;;6242504;22;37634;-79
2024/03/11 13:32:21;;;;;;;65.57;48.17;;;9.60;99.90;;;;;;6242335;22;37244;-80
2024/03/11 13:34:53;;;;;;;68.77;49.37;;;9.60;99.90;;;;;;6256195;22;38454;-79
2024/03/11 13:37:19;;;;;;;62.97;46.70;;;9.50;99.90;;;;;;6268897;22;36932;-79
2024/03/11 13:39:46;;;;;;;74.28;50.78;;;9.50;99.90;;;;;;6230199;22;37890;-79
2024/03/11 13:42:13;;;;;;;69.20;49.30;;;9.60;99.90;;;;;;6242556;22;37329;-78
2024/03/11 13:44:43;;;;;;;71.63;50.40;;;9.60;99.90;;;;;;6244778;22;39277;-80
2024/03/11 13:47:13;;;;;;;74.13;52.90;;;9.60;99.90;;;;;;6270579;22;37249;-79
2024/03/11 13:49:43;;;;;;;70.57;50.00;;;9.60;99.90;;;;;;6244681;22;37854;-79
2024/03/11 13:52:12;;;;;;;70.20;50.53;;;9.50;99.90;;;;;;6270807;22;38184;-79
2024/03/11 13:54:39;;;;;;;70.30;49.50;;;9.40;99.90;;;;;;6241075;22;38827;-79
2024/03/11 13:57:08;;;;;;;60.90;47.10;;;9.50;99.90;;;;;;6240822;22;37223;-80
2024/03/11 13:59:34;;;;;;;67.17;50.13;;;9.50;99.90;;;;;;6227499;22;38046;-79
2024/03/11 14:02:00;;;;;;;71.27;49.83;;;9.50;99.90;;;;;;6241903;22;38965;-79
2024/03/11 14:04:27;;;;;;;65.53;48.72;;;9.60;99.90;;;;;;6236912;22;38472;-80
2024/03/11 14:06:55;;;;;;;66.97;48.70;;;9.60;99.90;;;;;;6243615;22;36555;-79
2024/03/11 14:09:24;;;;;;;68.60;49.00;;;9.60;99.90;;;;;;6266353;22;39508;-79
2024/03/11 14:11:52;;;;;;;69.87;48.57;;;9.50;99.90;;;;;;6268061;22;38336;-79
2024/03/11 14:14:23;;;;;;;72.53;49.63;;;9.40;99.90;;;;;;6239586;22;37406;-79
2024/03/11 14:16:50;;;;;;;67.43;47.53;;;9.40;99.90;;;;;;6242661;22;36223;-79
2024/03/11 14:19:20;;;;;;;69.23;49.20;;;9.30;99.90;;;;;;6219826;22;39028;-78
2024/03/11 14:21:47;;;;;;;68.87;45.90;;;9.30;99.90;;;;;;6236023;22;37681;-78
2024/03/11 14:24:21;;;;;;;66.83;46.80;;;9.30;99.90;;;;;;6207110;22;37115;-79
2024/03/11 14:26:50;;;;;;;72.43;49.67;;;9.30;99.90;;;;;;6224915;22;37958;-79
2024/03/11 14:29:16;;;;;;;69.70;46.80;;;9.30;99.90;;;;;;6235928;22;39110;-79
2024/03/11 14:31:46;;;;;;;77.97;51.37;;;9.30;99.90;;;;;;6235787;22;39696;-79
2024/03/11 14:34:12;;;;;;;86.43;55.57;;;9.40;99.90;;;;;;6270774;22;37882;-78
2024/03/11 14:36:39;;;;;;;71.97;48.73;;;9.30;99.90;;;;;;6263946;22;37652;-78
2024/03/11 14:39:16;;;;;;;75.67;50.07;;;9.30;99.90;;;;;;6245030;22;41265;-78
2024/03/11 14:41:44;;;;;;;82.60;54.17;;;9.20;99.90;;;;;;6252686;22;37347;-78
2024/03/11 14:44:15;;;;;;;77.33;50.47;;;9.30;99.90;;;;;;6245661;22;37817;-79
2024/03/11 14:46:42;;;;;;;66.97;46.63;;;9.40;99.90;;;;;;6240254;22;38325;-79
2024/03/11 14:49:09;;;;;;;69.80;48.53;;;9.40;99.90;;;;;;6235419;22;38689;-78
2024/03/11 14:51:40;;;;;;;74.80;49.77;;;9.30;99.90;;;;;;6233296;22;37862;-78
2024/03/11 14:54:26;;;;;;;76.10;52.13;;;9.30;99.90;;;;;;6233710;22;37143;-79
2024/03/11 14:56:53;;;;;;;81.10;52.57;;;9.30;99.90;;;;;;6263127;22;37040;-79
2024/03/11 14:59:23;;;;;;;76.17;51.50;;;9.30;99.90;;;;;;6259887;22;38736;-78
2024/03/11 15:01:53;;;;;;;73.47;48.93;;;9.20;99.90;;;;;;6265172;22;38444;-80
2024/03/11 15:04:21;;;;;;;77.80;50.73;;;9.20;99.90;;;;;;6236507;22;39308;-79
2024/03/11 15:06:47;;;;;;;80.23;52.27;;;9.20;99.90;;;;;;6235312;22;38491;-78
2024/03/11 15:09:19;;;;;;;79.30;52.47;;;9.10;99.90;;;;;;6236229;22;40067;-79
2024/03/11 15:11:46;;;;;;;;;;;9.10;99.90;;;;;;6235046;22;37811;-79
2024/03/11 15:14:15;;;;;;;83.57;50.57;;;9.10;99.90;;;;;;6236449;22;39088;-79
2024/03/11 15:16:45;;;;;;;77.03;49.63;;;9.10;99.90;;;;;;6234438;22;37162;-80
2024/03/11 15:19:12;;;;;;;77.40;51.10;;;9.10;99.90;;;;;;6261652;22;40183;-78
2024/03/11 15:21:39;;;;;;;72.03;47.20;;;9.10;99.90;;;;;;6262313;22;39315;-79
2024/03/11 15:24:10;;;;;;;78.70;49.63;;;9.10;99.90;;;;;;6234378;22;38575;-79
2024/03/11 15:26:43;;;;;;;73.83;47.60;;;9.10;99.90;;;;;;6260025;22;37275;-79
2024/03/11 15:29:10;;;;;;;;;;;9.10;99.90;;;;;;6233149;22;39364;-78
2024/03/11 15:31:36;;;;;;;77.63;48.10;;;9.20;99.90;;;;;;6234047;22;39092;-79
2024/03/11 15:34:03;;;;;;;69.50;45.37;;;9.20;99.90;;;;;;6231209;22;37431;-79
2024/03/11 15:36:35;;;;;;;77.50;48.43;;;9.20;99.90;;;;;;6232482;22;36702;-79
2024/03/11 15:39:03;;;;;;;73.07;47.67;;;9.30;99.90;;;;;;6231290;22;39036;-79
2024/03/11 15:41:29;;;;;;;78.07;49.50;;;9.30;99.90;;;;;;6255481;22;47750;-78
2024/03/11 15:43:56;;;;;;;75.73;47.97;;;9.20;99.90;;;;;;6263269;22;38833;-78
2024/03/11 15:46:26;;;;;;;72.37;48.60;;;9.20;99.90;;;;;;6230111;22;37785;-78
2024/03/11 15:48:53;;;;;;;76.30;48.70;;;9.10;99.90;;;;;;6236426;22;39861;-79
2024/03/11 15:51:20;;;;;;;75.73;48.63;;;9.10;99.90;;;;;;6230383;22;37744;-78
2024/03/11 15:53:53;;;;;;;76.97;48.63;;;9.00;99.90;;;;;;6232311;22;38388;-79
2024/03/11 15:56:20;;;;;;;74.93;47.13;;;9.00;99.90;;;;;;6229766;22;39188;-80
2024/03/11 15:58:46;;;;;;;68.43;44.93;;;9.00;99.90;;;;;;6264144;22;39699;-78
2024/03/11 16:01:14;;;;;;;72.23;44.27;;;9.00;99.90;;;;;;6241329;22;37516;-79
2024/03/11 16:03:44;;;;;;;63.30;42.13;;;9.00;99.90;;;;;;6262676;22;38133;-79
2024/03/11 16:06:10;;;;;;;65.57;42.13;;;9.00;99.90;;;;;;6259004;22;37437;-78
2024/03/11 16:08:36;;;;;;;70.40;44.93;;;9.00;99.90;;;;;;6234602;22;40786;-79
2024/03/11 16:11:08;;;;;;;77.73;47.73;;;9.00;99.90;;;;;;6238699;22;39034;-79
2024/03/11 16:13:34;;;;;;;66.50;43.07;;;9.00;99.90;;;;;;6236177;22;38696;-79
2024/03/11 16:16:03;;;;;;;69.00;44.60;;;9.00;99.90;;;;;;6233744;22;37951;-79
2024/03/11 16:18:29;;;;;;;69.03;43.43;;;9.00;99.90;;;;;;6260828;22;48406;-79
2024/03/11 16:20:56;;;;;;;66.43;43.07;;;8.80;99.90;;;;;;6263024;22;40130;-79
2024/03/11 16:23:23;;;;;;;72.77;45.47;;;8.80;99.90;;;;;;6234615;22;39849;-78
2024/03/11 16:25:50;;;;;;;68.70;43.10;;;8.70;99.90;;;;;;6261155;22;37378;-77
2024/03/11 16:28:16;;;;;;;66.93;44.27;;;8.70;99.90;;;;;;6235341;22;39535;-78
2024/03/11 16:30:43;;;;;;;61.47;41.10;;;8.60;99.90;;;;;;6264423;22;38578;-78
2024/03/11 16:33:09;;;;;;;73.43;45.80;;;8.60;99.90;;;;;;6250082;22;39553;-78
2024/03/11 16:35:35;;;;;;;66.00;42.37;;;8.60;99.90;;;;;;6274883;22;37056;-79
2024/03/11 16:38:06;;;;;;;66.13;42.00;;;8.50;99.90;;;;;;6273719;22;40263;-79
2024/03/11 16:40:34;;;;;;;68.70;42.57;;;8.40;99.90;;;;;;6248503;22;38092;-78
2024/03/11 16:43:04;;;;;;;70.70;42.77;;;8.40;99.90;;;;;;6246520;22;39765;-78
2024/03/11 16:45:36;;;;;;;72.10;45.80;;;8.40;99.90;;;;;;6246675;22;48015;-79
2024/03/11 16:48:03;;;;;;;76.90;46.03;;;8.40;99.90;;;;;;6250251;22;38566;-78
2024/03/11 16:50:30;;;;;;;70.00;44.70;;;8.30;99.90;;;;;;6249128;22;37476;-78
2024/03/11 16:53:00;;;;;;;98.93;57.50;;;8.30;99.90;;;;;;6250425;22;37699;-78
2024/03/11 16:55:27;;;;;;;80.17;48.90;;;8.40;99.90;;;;;;6246628;22;37037;-78
2024/03/11 16:57:56;;;;;;;81.87;48.73;;;8.30;99.90;;;;;;6276716;22;40246;-78
2024/03/11 17:00:23;;;;;;;77.67;47.73;;;8.30;99.90;;;;;;6247921;22;37509;-79
2024/03/11 17:02:53;;;;;;;76.67;45.57;;;8.20;99.90;;;;;;6272958;22;49872;-78
2024/03/11 17:05:21;;;;;;;80.90;47.97;;;8.20;99.90;;;;;;6273648;22;37175;-78
2024/03/11 17:07:49;;;;;;;78.03;46.43;;;8.20;99.90;;;;;;6245820;22;38084;-79
2024/03/11 17:10:18;;;;;;;69.20;43.57;;;8.20;99.90;;;;;;6246398;22;38400;-78
2024/03/11 17:12:49;;;;;;;73.67;43.70;;;8.10;99.90;;;;;;6279217;22;38173;-80
2024/03/11 17:15:17;;;;;;;75.43;43.53;;;8.10;99.90;;;;;;6261513;22;36891;-79
2024/03/11 17:17:50;;;;;;;67.90;43.50;;;8.10;99.90;;;;;;6250931;22;37829;-80
2024/03/11 17:20:20;;;;;;;73.68;45.35;;;8.10;99.90;;;;;;6239680;22;38629;-79
2024/03/11 17:22:47;;;;;;;73.67;43.30;;;8.10;99.90;;;;;;6242740;22;37084;-79
2024/03/11 17:25:14;;;;;;;72.13;43.93;;;8.10;99.90;;;;;;6272424;22;36003;-79
2024/03/11 17:27:44;;;;;;;74.30;44.90;;;8.00;99.90;;;;;;6246434;22;38083;-79
2024/03/11 17:30:13;;;;;;;80.70;45.97;;;8.00;99.90;;;;;;6244549;22;37761;-79
2024/03/11 17:32:43;;;;;;;76.50;43.97;;;8.00;99.90;;;;;;6245595;22;37187;-80
2024/03/11 17:35:11;;;;;;;77.20;43.00;;;8.00;99.90;;;;;;6223158;22;36748;-79
2024/03/11 17:37:44;;;;;;;66.27;41.37;;;7.90;99.90;;;;;;6236399;22;38265;-80
2024/03/11 17:40:21;;;;;;;71.93;43.13;;;8.00;99.90;;;;;;6273024;22;38711;-79
2024/03/11 17:42:48;;;;;;;81.07;47.17;;;8.00;99.90;;;;;;6245326;22;37407;-79
2024/03/11 17:45:16;;;;;;;93.13;48.23;;;8.00;99.90;;;;;;6258903;22;37396;-79
2024/03/11 17:47:47;;;;;;;75.90;43.60;;;7.90;99.90;;;;;;6274234;22;38636;-79
2024/03/11 17:50:23;;;;;;;69.53;40.60;;;7.90;99.90;;;;;;6247443;22;37989;-79
2024/03/11 17:52:53;;;;;;;73.27;41.93;;;7.90;99.90;;;;;;6275844;22;38337;-79
2024/03/11 17:55:21;;;;;;;76.77;42.57;;;7.90;99.90;;;;;;6246617;22;36905;-79
2024/03/11 17:57:50;;;;;;;77.83;43.07;;;7.90;99.90;;;;;;6248462;22;39585;-78
2024/03/11 18:00:24;;;;;;;77.70;44.20;;;7.90;99.90;;;;;;6247532;22;38623;-79
2024/03/11 18:02:58;;;;;;;78.63;43.83;;;8.00;99.90;;;;;;6272707;22;37815;-79
2024/03/11 18:05:26;;;;;;;83.23;44.83;;;7.90;99.90;;;;;;6226782;22;36407;-78
2024/03/11 18:07:53;;;;;;;85.20;46.53;;;8.00;99.90;;;;;;6237445;22;37650;-77
2024/03/11 18:10:23;;;;;;;83.37;45.23;;;8.00;99.90;;;;;;6230341;22;37480;-77
2024/03/11 18:12:50;;;;;;;69.63;42.33;;;8.00;99.90;;;;;;6227498;22;38149;-77
2024/03/11 18:15:19;;;;;;;79.07;44.13;;;8.00;99.90;;;;;;6242500;22;37690;-77
2024/03/11 18:17:46;;;;;;;67.37;41.10;;;8.00;99.90;;;;;;6248484;22;39288;-78
2024/03/11 18:20:12;;;;;;;62.77;40.33;;;8.00;99.90;;;;;;6244659;22;37660;-77
2024/03/11 18:22:46;;;;;;;65.47;39.80;;;8.00;99.90;;;;;;6244490;22;39107;-78
2024/03/11 18:25:18;;;;;;;62.30;39.47;;;8.10;99.90;;;;;;6243386;22;36348;-78
2024/03/11 18:27:49;;;;;;;;;;;8.10;99.90;;;;;;6246391;22;37650;-78
2024/03/11 18:30:17;;;;;;;70.77;42.33;;;8.10;99.90;;;;;;6252279;22;465566;-78
2024/03/11 18:32:47;;;;;;;81.80;42.33;;;8.10;99.90;;;;;;6248460;22;36965;-78
2024/03/11 18:35:14;;;;;;;73.50;40.60;;;8.10;99.90;;;;;;6246316;22;36839;-78
2024/03/11 18:37:41;;;;;;;82.50;42.47;;;8.10;99.90;;;;;;6249845;22;39687;-78
2024/03/11 18:40:13;;;;;;;78.33;45.50;;;8.00;99.90;;;;;;6249755;22;39953;-78
2024/03/11 18:42:42;;;;;;;77.80;41.38;;;8.00;99.90;;;;;;6251712;22;37369;-78
2024/03/11 18:45:09;;;;;;;75.13;40.77;;;8.00;99.90;;;;;;6248312;22;39668;-77
2024/03/11 18:47:37;;;;;;;79.80;42.53;;;8.10;99.90;;;;;;6278884;22;38467;-77
2024/03/11 18:50:07;;;;;;;72.30;39.77;;;8.10;99.90;;;;;;6251002;22;38995;-77
2024/03/11 18:52:46;;;;;;;79.07;42.80;;;8.10;99.90;;;;;;6247032;22;47370;-78
2024/03/11 18:55:16;;;;;;;73.30;41.20;;;8.10;99.90;;;;;;6261787;22;37385;-76
2024/03/11 18:57:52;;;;;;;71.57;40.87;;;8.10;99.90;;;;;;6285963;22;38559;-77
2024/03/11 19:00:22;;;;;;;74.77;44.20;;;8.10;99.90;;;;;;6274321;22;39227;-78
2024/03/11 19:02:52;;;;;;;77.50;43.27;;;8.10;99.90;;;;;;6246089;22;47118;-78
2024/03/11 19:05:19;;;;;;;75.40;43.10;;;8.10;99.90;;;;;;6246427;22;37948;-78
2024/03/11 19:07:45;;;;;;;73.77;43.60;;;8.10;99.90;;;;;;6244998;22;38731;-79
2024/03/11 19:10:13;;;;;;;69.93;41.13;;;8.10;99.90;;;;;;6245076;22;37488;-78
2024/03/11 19:12:50;;;;;;;67.73;40.57;;;8.10;99.90;;;;;;6248333;22;37970;-78
2024/03/11 19:15:27;;;;;;;68.53;40.87;;;8.10;99.90;;;;;;6245287;22;36453;-78
2024/03/11 19:17:54;;;;;;;78.03;43.57;;;8.10;99.90;;;;;;6249983;22;39644;-78
2024/03/11 19:20:22;;;;;;;67.93;42.33;;;8.10;99.90;;;;;;6247529;22;37536;-77
2024/03/11 19:22:55;;;;;;;81.00;44.37;;;8.10;99.90;;;;;;6249024;22;36873;-78
2024/03/11 19:25:26;;;;;;;78.27;42.73;;;8.00;99.90;;;;;;6246978;22;37495;-77
2024/03/11 19:27:53;;;;;;;70.17;40.80;;;8.00;99.90;;;;;;6237995;22;38870;-79
2024/03/11 19:30:23;;;;;;;75.70;40.97;;;8.00;99.90;;;;;;6248102;22;38357;-79
2024/03/11 19:32:52;;;;;;;69.47;41.03;;;8.00;99.90;;;;;;6277164;22;36986;-80
2024/03/11 19:35:19;;;;;;;74.00;45.37;;;8.00;99.90;;;;;;6261133;22;36834;-80
2024/03/11 19:38:17;;;;;;;72.77;42.27;;;8.00;99.90;;;;;;6246561;22;37493;-80
2024/03/11 19:40:46;;;;;;;70.27;42.90;;;7.90;99.90;;;;;;6245548;22;47159;-79
2024/03/11 19:43:51;;;;;;;72.50;43.00;;;8.00;99.90;;;;;;6259280;22;37363;-79
2024/03/11 19:46:39;;;;;;;70.67;42.37;;;8.00;99.90;;;;;;6274394;22;37396;-79
2024/03/11 19:49:32;;;;;;;84.40;46.03;;;7.90;99.90;;;;;;6269975;22;38378;-79
2024/03/11 19:52:36;;;;;;;78.50;43.20;;;8.00;99.90;;;;;;6270639;22;37379;-79
2024/03/11 19:55:29;;;;;;;70.20;42.13;;;8.00;99.90;;;;;;6273862;22;48285;-78
2024/03/11 19:58:21;;;;;;;79.93;44.03;;;7.90;99.90;;;;;;6177249;22;48583;-79
2024/03/11 20:01:21;;;;;;;81.17;42.53;;;8.00;99.90;;;;;;6248578;22;47329;-79
2024/03/11 20:03:58;;;;;;;87.90;44.20;;;7.90;99.90;;;;;;6233859;22;47248;-79
2024/03/11 20:07:11;;;;;;;80.70;43.93;;;7.90;99.90;;;;;;6246521;22;37928;-79
2024/03/11 20:10:18;;;;;;;75.95;43.78;;;7.90;99.90;;;;;;6235044;22;47601;-79
2024/03/11 20:13:00;;;;;;;76.80;43.80;;;7.90;99.90;;;;;;6246690;22;47296;-79
2024/03/11 20:15:48;;;;;;;78.00;44.87;;;7.90;99.90;;;;;;6273994;22;38934;-79
2024/03/11 20:18:28;;;;;;;83.30;45.27;;;7.80;99.90;;;;;;6233268;22;37929;-79
2024/03/11 20:21:36;;;;;;;90.60;47.73;;;7.90;99.90;;;;;;6275809;22;36912;-79
2024/03/11 20:24:29;;;;;;;81.83;47.40;;;7.90;99.90;;;;;;6248348;22;47161;-79
2024/03/11 20:27:10;;;;;;;79.45;43.63;;;7.90;99.90;;;;;;6278982;22;39587;-79
2024/03/11 20:29:47;;;;;;;74.83;44.73;;;7.80;99.90;;;;;;6249796;22;47287;-79
2024/03/11 20:32:39;;;;;;;75.60;44.67;;;7.90;99.90;;;;;;6264351;22;37748;-79
2024/03/11 20:35:06;;;;;;;76.63;44.70;;;7.90;99.90;;;;;;6241631;22;37974;-79
2024/03/11 20:37:33;;;;;;;74.80;46.10;;;7.90;99.90;;;;;;6252690;22;37476;-79
2024/03/11 20:40:03;;;;;;;81.87;48.10;;;7.90;99.90;;;;;;6280378;22;39558;-79
2024/03/11 20:42:33;;;;;;;77.13;46.53;;;7.90;99.90;;;;;;6279079;22;37610;-79
2024/03/11 20:45:00;;;;;;;84.23;47.47;;;7.90;99.90;;;;;;6278557;22;37609;-79
2024/03/11 20:47:26;;;;;;;85.07;48.27;;;7.90;99.90;;;;;;6251661;22;37733;-79
2024/03/11 20:49:52;;;;;;;87.73;48.10;;;7.90;99.90;;;;;;6253182;22;38415;-79
2024/03/11 20:52:19;;;;;;;88.93;47.47;;;7.90;99.90;;;;;;6249557;22;36578;-79
2024/03/11 20:54:45;;;;;;;91.17;46.47;;;7.90;99.90;;;;;;6278863;22;38879;-79
2024/03/11 20:57:11;;;;;;;91.73;45.73;;;7.90;99.90;;;;;;6249682;22;39224;-80
2024/03/11 20:59:39;;;;;;;95.97;50.90;;;7.90;99.90;;;;;;6249140;22;37324;-79
2024/03/11 21:02:07;;;;;;;85.27;48.30;;;8.00;99.90;;;;;;6246267;22;37321;-79
2024/03/11 21:04:35;;;;;;;100.03;50.60;;;8.00;99.90;;;;;;6277460;22;39035;-79
2024/03/11 21:07:05;;;;;;;95.20;51.60;;;8.00;99.90;;;;;;6276640;22;39419;-80
2024/03/11 21:09:34;;;;;;;87.27;48.17;;;8.00;99.90;;;;;;6249758;22;37600;-79
2024/03/11 21:12:01;;;;;;;102.00;52.47;;;8.00;99.90;;;;;;6249557;22;36354;-79
2024/03/11 21:14:27;;;;;;;92.93;50.07;;;8.00;99.90;;;;;;6248492;22;47255;-78
2024/03/11 21:16:56;;;;;;;105.20;54.73;;;8.00;99.90;;;;;;6249761;22;38905;-78
2024/03/11 21:19:25;;;;;;;107.13;55.53;;;8.00;99.90;;;;;;6274063;22;37938;-78
2024/03/11 21:27:16;;;;;;;119.83;56.03;;;8.00;99.90;;;;;;6277816;22;39832;-78
2024/03/11 21:29:43;;;;;;;94.77;53.63;;;8.00;99.90;;;;;;6248727;22;38659;-78
2024/03/11 21:32:12;;;;;;;98.07;51.87;;;7.90;99.90;;;;;;6274324;22;37639;-78
2024/03/11 21:34:45;;;;;;;107.27;52.30;;;8.00;99.90;;;;;;6245939;22;39721;-78
2024/03/11 21:37:12;;;;;;;107.53;50.77;;;8.00;99.90;;;;;;6244004;22;38357;-78
2024/03/11 21:39:39;;;;;;;108.03;52.97;;;7.90;99.90;;;;;;6245296;22;38853;-79
2024/03/11 21:42:07;;;;;;;94.23;48.43;;;8.00;99.90;;;;;;6245284;22;37912;-78
2024/03/11 21:44:33;;;;;;;92.47;48.70;;;8.00;99.90;;;;;;6274819;22;38984;-78
2024/03/11 21:47:00;;;;;;;97.40;48.80;;;7.90;99.90;;;;;;6244135;22;37236;-78
2024/03/11 21:49:27;;;;;;;94.07;48.70;;;7.90;99.90;;;;;;6244836;22;37271;-78
2024/03/11 21:51:53;;;;;;;105.43;50.23;;;7.90;99.90;;;;;;6247897;22;37770;-78
2024/03/11 21:54:20;;;;;;;99.67;48.87;;;7.90;99.90;;;;;;6246292;22;37799;-79
2024/03/11 21:56:48;;;;;;;98.50;46.27;;;7.90;99.90;;;;;;6247018;22;37534;-78
2024/03/11 21:59:14;;;;;;;97.13;45.93;;;7.90;99.90;;;;;;6245670;22;38871;-78